createdAt,value
2022-12-04T00:01:47.784Z,3.10
2022-12-04T00:06:55.550Z,3.40
2022-12-04T00:12:03.379Z,3.30
2022-12-04T00:17:09.035Z,3.30
2022-12-04T00:22:13.184Z,3.20
2022-12-04T00:27:18.622Z,3.40
2022-12-04T00:32:21.967Z,3.30
2022-12-04T00:37:25.736Z,3.10
2022-12-04T00:42:30.677Z,3.10
2022-12-04T00:47:34.218Z,3.10
2022-12-04T00:52:37.470Z,3.00
2022-12-04T00:57:42.162Z,3.00
2022-12-04T01:02:47.906Z,3.10
2022-12-04T01:07:51.503Z,3.10
2022-12-04T01:12:56.395Z,3.20
2022-12-04T01:18:02.390Z,3.00
2022-12-04T01:23:07.106Z,3.00
2022-12-04T01:28:12.739Z,2.90
2022-12-04T01:33:17.885Z,3.00
2022-12-04T01:38:21.113Z,2.90
2022-12-04T01:43:27.059Z,3.10
2022-12-04T01:48:33.585Z,2.90
2022-12-04T01:53:38.032Z,3.10
2022-12-04T01:58:52.753Z,3.00
2022-12-04T02:03:57.126Z,2.90
2022-12-04T02:09:01.134Z,2.90
2022-12-04T02:14:10.132Z,2.80
2022-12-04T02:19:32.124Z,2.90
2022-12-04T02:24:46.817Z,2.90
2022-12-04T02:29:59.763Z,3.00
2022-12-04T02:35:03.795Z,3.10
2022-12-04T02:40:08.810Z,3.00
2022-12-04T02:45:16.596Z,2.90
2022-12-04T02:50:23.634Z,2.70
2022-12-04T02:55:29.543Z,2.70
2022-12-04T03:00:34.894Z,2.80
2022-12-04T03:05:40.856Z,3.00
2022-12-04T03:10:47.113Z,2.80
2022-12-04T03:15:55.980Z,3.00
2022-12-04T03:21:02.573Z,2.80
2022-12-04T03:26:15.325Z,2.80
2022-12-04T03:31:21.689Z,2.70
2022-12-04T03:36:26.685Z,2.80
2022-12-04T03:41:33.131Z,2.60
2022-12-04T03:46:42.187Z,2.80
2022-12-04T03:51:48.756Z,2.80
2022-12-04T03:56:55.191Z,2.70
2022-12-04T04:02:03.248Z,2.60
2022-12-04T04:07:09.498Z,2.50
2022-12-04T04:12:15.483Z,2.40
2022-12-04T04:17:39.177Z,2.50
2022-12-04T04:23:01.292Z,2.50
2022-12-04T04:28:05.161Z,2.40
2022-12-04T04:33:14.289Z,2.50
2022-12-04T04:38:19.743Z,2.40
2022-12-04T04:43:25.503Z,2.50
2022-12-04T04:48:32.827Z,2.50
2022-12-04T04:53:39.574Z,2.30
2022-12-04T04:58:43.942Z,2.50
2022-12-04T05:03:48.763Z,2.50
2022-12-04T05:08:54.064Z,2.40
2022-12-04T05:13:57.889Z,2.40
2022-12-04T05:19:20.831Z,2.30
2022-12-04T05:24:24.536Z,2.20
2022-12-04T05:29:34.276Z,2.10
2022-12-04T05:34:41.222Z,2.30
2022-12-04T05:39:45.207Z,2.20
2022-12-04T05:44:50.179Z,2.20
2022-12-04T05:49:55.238Z,2.30
2022-12-04T05:54:58.894Z,2.40
2022-12-04T06:00:05.279Z,2.40
2022-12-04T06:05:15.917Z,2.40
2022-12-04T06:10:20.333Z,2.30
2022-12-04T06:15:23.562Z,2.30
2022-12-04T06:20:28.909Z,2.40
2022-12-04T06:25:32.663Z,2.20
2022-12-04T06:30:35.947Z,2.30
2022-12-04T06:35:40.746Z,2.40
2022-12-04T06:40:44.216Z,2.40
2022-12-04T06:45:48.503Z,2.30
2022-12-04T06:51:00.137Z,2.40
2022-12-04T06:56:06.546Z,2.40
2022-12-04T07:01:11.470Z,2.30
2022-12-04T07:06:17.565Z,2.30
2022-12-04T07:11:22.587Z,2.30
2022-12-04T07:16:34.010Z,2.40
2022-12-04T07:21:42.712Z,2.40
2022-12-04T07:26:45.993Z,2.40
2022-12-04T07:31:49.527Z,2.40
2022-12-04T07:36:54.435Z,2.40
2022-12-04T07:41:58.573Z,2.40
2022-12-04T07:47:03.952Z,2.40
2022-12-04T07:52:08.850Z,2.30
2022-12-04T07:57:12.503Z,1.60
2022-12-04T08:02:18.202Z,2.40
2022-12-04T08:07:23.244Z,2.40
2022-12-04T08:12:27.442Z,2.50
2022-12-04T08:17:31.309Z,2.70
2022-12-04T08:22:43.601Z,2.60
2022-12-04T08:27:48.072Z,2.30
2022-12-04T08:32:51.514Z,2.60
2022-12-04T08:37:58.356Z,2.60
2022-12-04T08:43:02.022Z,2.50
2022-12-04T08:48:05.882Z,2.50
2022-12-04T08:53:10.825Z,2.50
2022-12-04T08:58:14.258Z,2.70
2022-12-04T09:03:19.789Z,3.10
2022-12-04T09:08:24.738Z,2.40
2022-12-04T09:13:28.043Z,2.60
2022-12-04T09:18:31.541Z,2.70
2022-12-04T09:23:37.235Z,2.90
2022-12-04T09:28:41.389Z,3.00
2022-12-04T09:33:45.183Z,2.90
2022-12-04T09:38:51.352Z,2.90
2022-12-04T09:43:57.872Z,2.90
2022-12-04T09:49:03.473Z,2.90
2022-12-04T09:54:16.396Z,3.20
2022-12-04T09:59:22.175Z,3.00
2022-12-04T10:04:26.808Z,3.20
2022-12-04T10:09:33.456Z,3.10
2022-12-04T10:15:01.421Z,3.00
2022-12-04T10:20:12.941Z,3.20
2022-12-04T10:25:22.906Z,2.90
2022-12-04T10:30:28.555Z,3.10
2022-12-04T10:35:33.689Z,3.10
2022-12-04T10:40:42.010Z,2.70
2022-12-04T10:45:45.575Z,3.00
2022-12-04T10:50:48.885Z,3.00
2022-12-04T10:55:53.642Z,2.90
2022-12-04T11:01:03.173Z,2.70
2022-12-04T11:06:06.970Z,2.60
2022-12-04T11:11:13.216Z,2.70
2022-12-04T11:16:31.717Z,2.90
2022-12-04T11:21:34.999Z,2.90
2022-12-04T11:26:39.772Z,2.70
2022-12-04T11:31:42.900Z,2.60
2022-12-04T11:36:52.395Z,2.80
2022-12-04T11:42:05.745Z,2.80
2022-12-04T11:47:20.498Z,2.90
2022-12-04T11:52:29.977Z,2.70
2022-12-04T11:57:37.916Z,2.60
2022-12-04T12:03:07.836Z,2.70
2022-12-04T12:08:15.787Z,2.60
2022-12-04T12:13:29.128Z,2.70
2022-12-04T12:18:47.251Z,2.60
2022-12-04T12:24:09.009Z,2.60
2022-12-04T12:29:22.845Z,2.60
2022-12-04T12:34:32.712Z,2.70
2022-12-04T12:39:39.822Z,2.80
2022-12-04T12:44:49.763Z,2.60
2022-12-04T12:49:57.070Z,2.70
2022-12-04T12:55:05.369Z,2.60
2022-12-04T13:00:16.536Z,2.60
2022-12-04T13:05:22.933Z,2.60
2022-12-04T13:10:27.592Z,2.50
2022-12-04T13:15:39.426Z,2.70
2022-12-04T13:20:49.034Z,2.70
2022-12-04T13:25:57.280Z,2.40
2022-12-04T13:31:09.688Z,2.50
2022-12-04T13:36:35.472Z,2.60
2022-12-04T13:41:40.303Z,2.60
2022-12-04T13:46:51.194Z,2.70
2022-12-04T13:51:55.220Z,2.60
2022-12-04T13:56:59.672Z,2.60
2022-12-04T14:02:08.288Z,2.60
2022-12-04T14:07:27.648Z,2.50
2022-12-04T14:12:32.574Z,2.50
2022-12-04T14:17:38.410Z,2.40
2022-12-04T14:22:44.476Z,2.40
2022-12-04T14:27:51.919Z,2.40
2022-12-04T14:33:07.631Z,2.20
2022-12-04T14:38:22.126Z,2.20
2022-12-04T14:43:26.729Z,2.20
2022-12-04T14:48:38.911Z,2.20
2022-12-04T14:53:44.959Z,2.10
2022-12-04T14:58:48.929Z,2.20
2022-12-04T15:03:56.245Z,2.30
2022-12-04T15:09:15.442Z,2.40
2022-12-04T15:14:19.133Z,2.40
2022-12-04T15:19:23.807Z,2.40
2022-12-04T15:24:27.510Z,2.40
2022-12-04T15:29:32.334Z,2.40
2022-12-04T15:34:42.170Z,2.50
2022-12-04T15:39:46.059Z,2.40
2022-12-04T15:44:53.299Z,2.40
2022-12-04T15:50:09.104Z,2.50
2022-12-04T15:55:16.879Z,2.30
2022-12-04T16:00:36.333Z,2.40
2022-12-04T16:05:41.603Z,2.40
2022-12-04T16:10:47.654Z,2.50
2022-12-04T16:15:51.517Z,2.30
2022-12-04T16:20:56.588Z,2.30
2022-12-04T16:26:00.260Z,2.30
2022-12-04T16:31:03.888Z,2.10
2022-12-04T16:36:11.554Z,2.20
2022-12-04T16:41:15.767Z,2.20
2022-12-04T16:46:19.093Z,2.30
2022-12-04T16:51:24.850Z,2.20
2022-12-04T16:56:28.212Z,2.40
2022-12-04T17:01:38.977Z,2.40
2022-12-04T17:06:45.876Z,2.30
2022-12-04T17:23:30.328Z,3.00
2022-12-04T17:28:34.777Z,2.40
2022-12-04T17:33:38.162Z,2.20
2022-12-04T17:38:43.643Z,2.30
2022-12-04T17:43:54.042Z,2.20
2022-12-04T17:49:03.940Z,2.20
2022-12-04T17:54:13.890Z,2.10
2022-12-04T17:59:17.244Z,2.10
2022-12-04T18:04:21.299Z,2.10
2022-12-04T18:09:26.337Z,2.00
2022-12-04T18:14:30.804Z,2.10
2022-12-04T18:19:34.026Z,2.10
2022-12-04T18:24:39.453Z,2.10
2022-12-04T18:29:43.666Z,2.20
2022-12-04T18:34:51.846Z,2.10
2022-12-04T18:39:57.712Z,2.10
2022-12-04T18:45:03.859Z,2.10
2022-12-04T18:50:08.291Z,2.20
2022-12-04T18:55:13.836Z,2.10
2022-12-04T19:00:18.091Z,2.20
2022-12-04T19:05:22.945Z,2.30
2022-12-04T19:10:28.004Z,2.20
2022-12-04T19:15:32.949Z,2.20
2022-12-04T19:20:36.457Z,2.20
2022-12-04T19:25:42.469Z,2.20
2022-12-04T19:30:53.228Z,2.20
2022-12-04T19:36:00.946Z,2.20
2022-12-04T19:41:08.284Z,2.30
2022-12-04T19:46:13.417Z,2.30
2022-12-04T19:51:21.175Z,2.30
2022-12-04T19:56:26.757Z,2.50
2022-12-04T20:01:32.276Z,2.40
2022-12-04T20:06:37.214Z,2.50
2022-12-04T20:11:42.319Z,2.60
2022-12-04T20:16:47.656Z,2.50
2022-12-04T20:21:57.657Z,2.50
2022-12-04T20:27:04.171Z,2.40
2022-12-04T20:32:07.974Z,2.40
2022-12-04T20:37:12.392Z,2.20
2022-12-04T20:42:20.618Z,2.20
2022-12-04T20:47:25.534Z,2.20
2022-12-04T20:52:30.769Z,2.30
2022-12-04T20:57:36.107Z,2.30
2022-12-04T21:02:39.695Z,2.20
2022-12-04T21:07:43.347Z,2.20
2022-12-04T21:13:09.325Z,2.20
2022-12-04T21:18:12.617Z,2.10
2022-12-04T21:23:16.053Z,2.10
2022-12-04T21:28:20.880Z,2.00
2022-12-04T21:33:24.673Z,2.00
2022-12-04T21:38:29.140Z,1.80
2022-12-04T21:43:34.295Z,1.80
2022-12-04T21:48:39.953Z,1.80
2022-12-04T21:53:43.914Z,1.80
2022-12-04T21:58:49.526Z,1.70
2022-12-04T22:03:54.162Z,1.80
2022-12-04T22:08:58.381Z,1.70
2022-12-04T22:14:05.414Z,1.70
2022-12-04T22:19:09.258Z,1.70
2022-12-04T22:24:12.442Z,1.80
2022-12-04T22:29:48.749Z,1.60
2022-12-04T22:34:44.131Z,1.70
2022-12-04T22:39:48.870Z,1.70
2022-12-04T22:44:55.271Z,1.80
2022-12-04T22:49:58.708Z,1.90
2022-12-04T22:55:02.348Z,1.90
2022-12-04T23:00:11.210Z,1.90
2022-12-04T23:05:14.625Z,1.90
2022-12-04T23:10:18.070Z,1.90
2022-12-04T23:15:25.292Z,1.80
2022-12-04T23:20:29.921Z,1.80
2022-12-04T23:25:41.209Z,1.70
2022-12-04T23:30:49.826Z,1.60
2022-12-04T23:35:56.041Z,1.60
2022-12-04T23:41:02.948Z,1.80
2022-12-04T23:46:11.771Z,1.60
2022-12-04T23:51:16.963Z,1.60
2022-12-04T23:56:21.243Z,1.60
